Arrow — CRXN — position and weather

sailwx.info

Track history (hours):
 
Tides and Currents Weather Stations Pressure Air Temp Water Temp Dewpoint Dewpoint Depression Visibility Wind Speed Wind Dir Waves Ship Positions

Arrow

Last reported at 2015-May-25 17:13 UTC. Time now 2015-May-25 17:41 UTC.
Position N 37°02' W 009°22'.

Length 126 m; draft 5.4 m.

Type: Cargo ship. MMSI: 255797000.

Date/timePositionNaut miles runAvg speedWind from/ knotsBaromVisibWave heightAir tempDewpointWater temp
2015-May-25 17:13N 37°02' W 009°22'811.3
2015-May-25 16:32N 36°55' W 009°20'1110.9
2015-May-25 15:34N 36°47' W 009°11'1211.1
2015-May-25 14:30N 36°42' W 008°57'1111.2
2015-May-25 13:32N 36°39' W 008°44'1111.4
2015-May-25 12:34N 36°36' W 008°31'1311.4
2015-May-25 11:25N 36°32' W 008°15'13511.4
2015-May-24 23:34N 35°58' W 005°34'9 9.3
2015-May-24 22:33N 36°00' W 005°23'1010.3
2015-May-24 21:33N 35°55' W 005°11'222 5.2
2015-May-23 02:30N 35°43' W 000°38'0 0.0
2015-May-23 01:18N 35°43' W 000°38'0 0.0
2015-May-22 23:24N 35°43' W 000°38'0 0.0
2015-May-22 01:25N 35°43' W 000°38'  
2015-May-19 17:18N 35°43' W 000°38'0 0.0
2015-May-19 16:24N 35°43' W 000°38'0 0.0
2015-May-19 15:24N 35°43' W 000°38'0 0.0
2015-May-19 14:30N 35°43' W 000°38'0 0.0
2015-May-19 13:33N 35°43' W 000°38'0 0.0
2015-May-19 12:24N 35°43' W 000°38'0 0.0
2015-May-19 11:07N 35°43' W 000°38'0 0.0
2015-May-19 10:12N 35°43' W 000°38'0 0.0
2015-May-19 07:06N 35°43' W 000°38'0 0.0
2015-May-19 06:24N 35°43' W 000°38'1 0.6
2015-May-19 04:24N 35°44' W 000°37'1 0.3
2015-May-19 01:13N 35°44' W 000°36'0 0.0
2015-May-18 21:13N 35°44' W 000°36'0 0.0
2015-May-18 20:13N 35°44' W 000°36'0 0.0
2015-May-18 18:31N 35°44' W 000°36'0 0.0
2015-May-18 17:13N 35°44' W 000°36'0 0.0
2015-May-18 16:33N 35°44' W 000°36'0 0.0
2015-May-18 15:30N 35°44' W 000°36'0 0.0
2015-May-18 14:31N 35°44' W 000°36'0 0.0
2015-May-18 13:33N 35°44' W 000°36'0 0.0
2015-May-17 21:13N 35°44' W 000°36'0 0.0
2015-May-17 19:31N 35°44' W 000°37'0 0.0
2015-May-17 17:31N 35°44' W 000°37'0 0.0
2015-May-17 16:25N 35°44' W 000°37'0 0.0
2015-May-17 15:19N 35°44' W 000°37'0 0.0
2015-May-17 06:07N 35°44' W 000°37'9 3.3
2015-May-17 03:19N 35°50' W 000°45'21911.7
2015-May-16 08:33N 35°59' W 005°16'7111.8
2015-May-16 02:33N 36°00' W 006°44'1212.4
2015-May-16 01:33N 36°04' W 006°58'3812.5
2015-May-15 22:30N 36°14' W 007°44'1412.5
2015-May-15 21:23N 36°17' W 008°01'1112.6
2015-May-15 20:33N 36°19' W 008°14'1312.4
2015-May-15 19:29N 36°23' W 008°30'  
Track history (hours):
 
Tides and Currents Weather Stations Pressure Air Temp Water Temp Dewpoint Dewpoint Depression Visibility Wind Speed Wind Dir Waves Ship Positions

Arrow

Last reported at 2015-May-25 17:13 UTC. Time now 2015-May-25 17:41 UTC.
Position N 37°02' W 009°22'.

Length 126 m; draft 5.4 m.

Type: Cargo ship. MMSI: 255797000.

Date/timePositionNaut miles runAvg speedWind from/ knotsBaromVisibWave heightAir tempDewpointWater temp
2015-May-25 17:13N 37°02' W 009°22'811.3
2015-May-25 16:32N 36°55' W 009°20'1110.9
2015-May-25 15:34N 36°47' W 009°11'1211.1
2015-May-25 14:30N 36°42' W 008°57'1111.2
2015-May-25 13:32N 36°39' W 008°44'1111.4
2015-May-25 12:34N 36°36' W 008°31'1311.4
2015-May-25 11:25N 36°32' W 008°15'13511.4
2015-May-24 23:34N 35°58' W 005°34'9 9.3
2015-May-24 22:33N 36°00' W 005°23'1010.3
2015-May-24 21:33N 35°55' W 005°11'222 5.2
2015-May-23 02:30N 35°43' W 000°38'0 0.0
2015-May-23 01:18N 35°43' W 000°38'0 0.0
2015-May-22 23:24N 35°43' W 000°38'0 0.0
2015-May-22 01:25N 35°43' W 000°38'  
2015-May-19 17:18N 35°43' W 000°38'0 0.0
2015-May-19 16:24N 35°43' W 000°38'0 0.0
2015-May-19 15:24N 35°43' W 000°38'0 0.0
2015-May-19 14:30N 35°43' W 000°38'0 0.0
2015-May-19 13:33N 35°43' W 000°38'0 0.0
2015-May-19 12:24N 35°43' W 000°38'0 0.0
2015-May-19 11:07N 35°43' W 000°38'0 0.0
2015-May-19 10:12N 35°43' W 000°38'0 0.0
2015-May-19 07:06N 35°43' W 000°38'0 0.0
2015-May-19 06:24N 35°43' W 000°38'1 0.6
2015-May-19 04:24N 35°44' W 000°37'1 0.3
2015-May-19 01:13N 35°44' W 000°36'0 0.0
2015-May-18 21:13N 35°44' W 000°36'0 0.0
2015-May-18 20:13N 35°44' W 000°36'0 0.0
2015-May-18 18:31N 35°44' W 000°36'0 0.0
2015-May-18 17:13N 35°44' W 000°36'0 0.0
2015-May-18 16:33N 35°44' W 000°36'0 0.0
2015-May-18 15:30N 35°44' W 000°36'0 0.0
2015-May-18 14:31N 35°44' W 000°36'0 0.0
2015-May-18 13:33N 35°44' W 000°36'0 0.0
2015-May-17 21:13N 35°44' W 000°36'0 0.0
2015-May-17 19:31N 35°44' W 000°37'0 0.0
2015-May-17 17:31N 35°44' W 000°37'0 0.0
2015-May-17 16:25N 35°44' W 000°37'0 0.0
2015-May-17 15:19N 35°44' W 000°37'0 0.0
2015-May-17 06:07N 35°44' W 000°37'9 3.3
2015-May-17 03:19N 35°50' W 000°45'21911.7
2015-May-16 08:33N 35°59' W 005°16'7111.8
2015-May-16 02:33N 36°00' W 006°44'1212.4
2015-May-16 01:33N 36°04' W 006°58'3812.5
2015-May-15 22:30N 36°14' W 007°44'1412.5
2015-May-15 21:23N 36°17' W 008°01'1112.6
2015-May-15 20:33N 36°19' W 008°14'1312.4
2015-May-15 19:29N 36°23' W 008°30'  

Dump ship's entire track history